createdAt,value
2023-05-10T00:03:32.399Z,100.00
2023-05-10T00:08:36.424Z,100.00
2023-05-10T00:13:41.965Z,100.00
2023-05-10T00:18:46.017Z,100.00
2023-05-10T00:23:49.956Z,100.00
2023-05-10T00:28:55.239Z,100.00
2023-05-10T00:33:59.389Z,100.00
2023-05-10T00:39:04.581Z,100.00
2023-05-10T00:44:10.162Z,100.00
2023-05-10T00:49:14.909Z,100.00
2023-05-10T00:54:19.028Z,100.00
2023-05-10T00:59:24.364Z,100.00
2023-05-10T01:04:28.655Z,100.00
2023-05-10T01:09:33.102Z,100.00
2023-05-10T01:14:39.025Z,100.00
2023-05-10T01:19:44.477Z,100.00
2023-05-10T01:25:21.379Z,100.00
2023-05-10T01:31:09.597Z,100.00
2023-05-10T01:36:27.278Z,100.00
2023-05-10T01:41:42.229Z,100.00
2023-05-10T01:46:51.131Z,100.00
2023-05-10T01:52:01.689Z,100.00
2023-05-10T01:57:10.166Z,100.00
2023-05-10T02:02:17.108Z,100.00
2023-05-10T02:07:25.463Z,100.00
2023-05-10T02:12:31.084Z,100.00
2023-05-10T02:17:37.303Z,100.00
2023-05-10T02:22:43.855Z,100.00
2023-05-10T02:27:49.657Z,100.00
2023-05-10T02:32:54.501Z,100.00
2023-05-10T02:38:01.380Z,100.00
2023-05-10T02:43:11.321Z,100.00
2023-05-10T02:48:15.653Z,100.00
2023-05-10T02:53:25.726Z,100.00
2023-05-10T02:58:30.110Z,100.00
2023-05-10T03:03:34.137Z,100.00
2023-05-10T03:08:39.672Z,100.00
2023-05-10T03:13:56.423Z,100.00
2023-05-10T03:19:11.247Z,100.00
2023-05-10T03:24:18.647Z,100.00
2023-05-10T03:29:27.913Z,100.00
2023-05-10T04:11:41.242Z,100.00
2023-05-10T04:16:45.318Z,100.00
2023-05-10T04:21:49.240Z,100.00
2023-05-10T04:26:57.734Z,100.00
2023-05-10T04:32:01.899Z,100.00
2023-05-10T04:37:05.820Z,100.00
2023-05-10T04:42:11.608Z,100.00
2023-05-10T04:47:15.489Z,100.00
2023-05-10T04:52:19.523Z,100.00
2023-05-10T04:57:24.846Z,100.00
2023-05-10T05:02:28.911Z,100.00
2023-05-10T05:07:32.975Z,100.00
2023-05-10T05:12:38.234Z,100.00
2023-05-10T05:17:42.168Z,100.00
2023-05-10T05:22:46.012Z,100.00
2023-05-10T05:27:51.321Z,100.00
2023-05-10T05:32:55.439Z,100.00
2023-05-10T05:37:59.408Z,100.00
2023-05-10T05:43:04.762Z,100.00
2023-05-10T05:48:08.743Z,100.00
2023-05-10T05:53:12.764Z,100.00
2023-05-10T05:58:18.163Z,100.00
2023-05-10T06:03:22.642Z,100.00
2023-05-10T06:08:26.919Z,100.00
2023-05-10T06:13:33.720Z,100.00
2023-05-10T06:18:39.806Z,100.00
2023-05-10T06:23:43.887Z,100.00
2023-05-10T06:28:49.310Z,100.00
2023-05-10T06:33:55.344Z,100.00
2023-05-10T06:39:00.520Z,100.00
2023-05-10T06:44:06.314Z,100.00
2023-05-10T06:49:10.548Z,100.00
2023-05-10T06:54:15.329Z,100.00
2023-05-10T06:59:22.612Z,100.00
2023-05-10T07:04:26.362Z,100.00
2023-05-10T07:09:31.078Z,100.00
2023-05-10T07:14:36.411Z,100.00
2023-05-10T07:19:40.359Z,100.00
2023-05-10T07:24:44.465Z,100.00
2023-05-10T07:29:49.841Z,100.00
2023-05-10T07:34:53.983Z,100.00
2023-05-10T07:40:01.196Z,100.00
2023-05-10T07:45:07.672Z,100.00
2023-05-10T07:50:15.177Z,100.00
2023-05-10T07:55:21.063Z,100.00
2023-05-10T08:00:28.252Z,100.00
2023-05-10T08:05:34.064Z,98.77
2023-05-10T08:10:39.716Z,98.23
2023-05-10T08:15:45.005Z,100.00
2023-05-10T08:20:49.386Z,91.59
2023-05-10T08:25:53.608Z,93.29
2023-05-10T08:30:59.011Z,97.87
2023-05-10T08:36:02.978Z,93.42
2023-05-10T08:41:08.185Z,97.66
2023-05-10T08:46:15.355Z,95.36
2023-05-10T08:51:22.344Z,94.62
2023-05-10T08:56:26.370Z,98.32
2023-05-10T09:01:33.896Z,96.57
2023-05-10T09:12:06.262Z,96.50
2023-05-10T09:17:12.342Z,98.33
2023-05-10T09:22:16.416Z,87.48
2023-05-10T09:27:31.401Z,88.93
2023-05-10T09:32:41.787Z,84.67
2023-05-10T09:37:48.828Z,75.34
2023-05-10T09:42:57.347Z,77.14
2023-05-10T09:48:04.307Z,71.02
2023-05-10T09:53:08.355Z,76.97
2023-05-10T09:58:12.504Z,71.38
2023-05-10T10:14:17.053Z,86.01
2023-05-10T10:19:23.206Z,87.83
2023-05-10T10:24:27.123Z,75.88
2023-05-10T10:29:44.034Z,89.85
2023-05-10T10:34:50.095Z,74.28
2023-05-10T10:39:54.113Z,81.55
2023-05-10T10:45:14.635Z,68.66
2023-05-10T10:50:20.282Z,73.22
2023-05-10T10:55:25.989Z,73.86
2023-05-10T11:00:31.919Z,78.48
2023-05-10T11:05:42.564Z,80.12
2023-05-10T11:10:55.280Z,76.35
2023-05-10T11:16:00.118Z,74.65
2023-05-10T11:21:06.654Z,91.71
2023-05-10T11:26:12.047Z,77.76
2023-05-10T11:31:16.431Z,76.38
2023-05-10T11:36:23.114Z,70.13
2023-05-10T11:41:28.954Z,81.90
2023-05-10T11:46:36.455Z,71.30
2023-05-10T11:51:43.323Z,74.74
2023-05-10T11:56:47.488Z,82.29
2023-05-10T12:01:51.621Z,81.69
2023-05-10T12:06:57.180Z,75.47
2023-05-10T12:12:01.950Z,85.51
2023-05-10T12:17:05.865Z,82.29
2023-05-10T12:22:12.532Z,79.98
2023-05-10T12:27:16.864Z,88.11
2023-05-10T12:32:20.854Z,76.26
2023-05-10T12:37:32.154Z,73.80
2023-05-10T12:42:36.556Z,77.04
2023-05-10T12:47:44.328Z,83.23
2023-05-10T12:52:49.638Z,81.32
2023-05-10T12:57:53.777Z,84.30
2023-05-10T13:02:57.800Z,87.50
2023-05-10T13:08:03.403Z,88.83
2023-05-10T13:13:08.508Z,85.89
2023-05-10T13:18:12.453Z,81.30
2023-05-10T13:23:17.805Z,82.26
2023-05-10T13:28:21.708Z,89.75
2023-05-10T13:33:25.638Z,86.54
2023-05-10T13:38:30.923Z,94.25
2023-05-10T13:43:35.004Z,91.68
2023-05-10T13:48:39.577Z,85.75
2023-05-10T13:53:44.907Z,88.85
2023-05-10T13:58:48.798Z,82.99
2023-05-10T14:03:56.279Z,93.61
2023-05-10T14:09:02.562Z,95.17
2023-05-10T14:14:06.493Z,92.83
2023-05-10T14:19:10.630Z,93.37
2023-05-10T14:24:16.040Z,94.35
2023-05-10T14:29:20.007Z,99.96
2023-05-10T14:34:23.903Z,100.00
2023-05-10T14:39:30.642Z,100.00
2023-05-10T14:44:34.490Z,100.00
2023-05-10T14:49:38.393Z,100.00
2023-05-10T14:54:43.695Z,100.00
2023-05-10T14:59:47.608Z,100.00
2023-05-10T15:04:52.150Z,100.00
2023-05-10T15:09:58.050Z,100.00
2023-05-10T15:15:01.984Z,100.00
2023-05-10T15:20:07.247Z,100.00
2023-05-10T15:25:12.673Z,100.00
2023-05-10T15:30:16.921Z,100.00
2023-05-10T15:35:21.079Z,100.00
2023-05-10T15:40:26.370Z,100.00
2023-05-10T15:45:30.551Z,100.00
2023-05-10T15:50:34.603Z,100.00
2023-05-10T15:55:39.827Z,100.00
2023-05-10T16:00:43.817Z,100.00
2023-05-10T16:05:47.818Z,100.00
2023-05-10T16:10:54.024Z,100.00
2023-05-10T16:15:58.532Z,100.00
2023-05-10T16:21:02.915Z,100.00
2023-05-10T16:26:09.984Z,100.00
2023-05-10T16:31:13.931Z,100.00
2023-05-10T16:36:17.943Z,100.00
2023-05-10T16:41:23.240Z,100.00
2023-05-10T16:46:27.409Z,100.00
2023-05-10T16:51:31.501Z,100.00
2023-05-10T16:56:36.811Z,100.00
2023-05-10T17:01:40.830Z,100.00
2023-05-10T17:06:44.730Z,100.00
2023-05-10T17:11:50.009Z,100.00
2023-05-10T17:16:55.246Z,100.00
2023-05-10T17:21:59.191Z,100.00
2023-05-10T17:27:04.605Z,100.00
2023-05-10T17:32:09.393Z,100.00
2023-05-10T17:37:13.296Z,100.00
2023-05-10T17:42:19.474Z,100.00
2023-05-10T17:47:23.397Z,100.00
2023-05-10T17:52:27.421Z,100.00
2023-05-10T17:57:33.291Z,100.00
2023-05-10T18:02:37.791Z,100.00
2023-05-10T18:07:41.938Z,100.00
2023-05-10T18:12:47.301Z,100.00
2023-05-10T18:17:51.523Z,100.00
2023-05-10T18:22:56.239Z,100.00
2023-05-10T18:28:01.534Z,100.00
2023-05-10T18:33:05.505Z,100.00
2023-05-10T18:38:10.254Z,100.00
2023-05-10T18:43:15.733Z,100.00
2023-05-10T18:48:19.682Z,100.00
2023-05-10T18:53:23.696Z,100.00
2023-05-10T18:58:30.171Z,100.00
2023-05-10T19:03:34.152Z,100.00
2023-05-10T19:08:38.027Z,100.00
2023-05-10T19:13:45.184Z,100.00
2023-05-10T19:18:50.795Z,100.00
2023-05-10T19:23:56.776Z,100.00
2023-05-10T19:29:04.823Z,100.00
2023-05-10T19:34:08.764Z,100.00
2023-05-10T19:39:13.151Z,100.00
2023-05-10T19:44:18.414Z,100.00
2023-05-10T19:49:22.744Z,100.00
2023-05-10T19:54:26.736Z,100.00
2023-05-10T19:59:32.089Z,100.00
2023-05-10T20:04:36.010Z,100.00
2023-05-10T20:09:39.988Z,100.00
2023-05-10T20:14:45.300Z,100.00
2023-05-10T20:19:49.234Z,100.00
2023-05-10T20:24:55.883Z,100.00
2023-05-10T20:30:01.555Z,100.00
2023-05-10T20:35:05.964Z,100.00
2023-05-10T20:40:11.070Z,100.00
2023-05-10T20:45:16.566Z,100.00
2023-05-10T20:50:20.552Z,100.00
2023-05-10T20:55:24.565Z,100.00
2023-05-10T21:00:29.878Z,100.00
2023-05-10T21:05:33.767Z,100.00
2023-05-10T21:10:37.672Z,100.00
2023-05-10T21:15:42.954Z,100.00
2023-05-10T21:20:46.874Z,100.00
2023-05-10T21:25:50.878Z,100.00
2023-05-10T21:30:56.172Z,100.00
2023-05-10T21:36:00.141Z,100.00
2023-05-10T21:41:08.094Z,100.00
2023-05-10T21:46:14.321Z,100.00
2023-05-10T21:51:18.303Z,100.00
2023-05-10T21:56:22.470Z,100.00
2023-05-10T22:01:27.845Z,100.00
2023-05-10T22:06:31.992Z,100.00
2023-05-10T22:11:35.858Z,100.00
2023-05-10T22:16:41.183Z,100.00
2023-05-10T22:21:45.150Z,100.00
2023-05-10T22:26:49.043Z,100.00
2023-05-10T22:31:54.436Z,100.00
2023-05-10T22:36:58.329Z,100.00
2023-05-10T22:42:02.206Z,100.00
2023-05-10T22:47:09.013Z,100.00
2023-05-10T22:52:12.925Z,100.00
2023-05-10T22:57:17.367Z,100.00
2023-05-10T23:02:22.707Z,100.00
2023-05-10T23:07:26.676Z,100.00
2023-05-10T23:12:31.382Z,100.00
2023-05-10T23:17:36.744Z,100.00
2023-05-10T23:22:40.638Z,100.00
2023-05-10T23:27:45.809Z,100.00
2023-05-10T23:32:51.073Z,100.00
2023-05-10T23:37:55.152Z,100.00
2023-05-10T23:42:59.098Z,100.00
2023-05-10T23:48:04.531Z,100.00
2023-05-10T23:53:08.453Z,100.00
2023-05-10T23:58:12.661Z,100.00
